Time;durP1;ratioP1;P1;durP2;ratioP2;P2;SDS_P1;SDS_P2;PMS_P1;PMS_P2;Temp;Humidity;BMP_temperature;BMP_pressure;BME280_temperature;BME280_humidity;BME280_pressure;Samples;Min_cycle;Max_cycle;Signal;HPM_P1;HPM_P2
2022/11/20 00:01:31;;;;;;;11.03;4.80;;;;;;;-143.84;95.43;45148.09;5092252;28;20823;-79
2022/11/20 00:03:59;;;;;;;16.77;5.43;;;;;;;-143.84;95.40;45140.47;5090787;28;20982;-79
2022/11/20 00:06:28;;;;;;;17.33;5.07;;;;;;;-143.84;94.99;45144.28;5090919;28;20435;-79
2022/11/20 00:08:57;;;;;;;15.10;5.03;;;;;;;-143.84;95.22;45163.31;5091989;28;21297;-79
2022/11/20 00:11:26;;;;;;;15.20;5.30;;;;;;;-143.84;95.02;45138.56;5092066;28;20541;-79
2022/11/20 00:13:57;;;;;;;24.07;5.97;;;;;;;-143.84;94.96;45140.47;5092149;28;20473;-79
2022/11/20 00:16:26;;;;;;;31.50;6.27;;;;;;;-143.84;94.93;45165.22;5092254;28;20489;-79
2022/11/20 00:18:54;;;;;;;11.17;4.80;;;;;;;-143.84;94.68;45169.03;5092124;28;20447;-79
2022/11/20 00:21:23;;;;;;;17.50;4.40;;;;;;;-143.84;94.45;45153.81;5091669;28;20949;-79
2022/11/20 00:23:51;;;;;;;9.33;4.13;;;;;;;-143.84;94.36;45155.69;5092350;28;20949;-79
2022/11/20 00:26:20;;;;;;;20.83;4.87;;;;;;;-143.84;94.26;45146.19;5092332;28;20447;-79
2022/11/20 00:28:51;;;;;;;13.97;4.83;;;;;;;-143.84;94.05;45163.31;5091935;28;20432;-79
2022/11/20 00:31:20;;;;;;;13.80;4.87;;;;;;;-143.84;93.96;45163.31;5092085;28;20428;-79
2022/11/20 00:33:48;;;;;;;13.97;4.83;;;;;;;-143.84;93.71;45172.84;5092188;28;20448;-79
2022/11/20 00:36:16;;;;;;;28.57;5.73;;;;;;;-143.84;93.23;45148.09;5092136;28;20463;-79
2022/11/20 00:38:44;;;;;;;15.37;4.70;;;;;;;-143.84;92.86;45163.31;5091717;28;20447;-79
2022/11/20 00:41:12;;;;;;;21.63;5.67;;;;;;;-143.84;92.51;45136.66;5091899;28;20428;-79
2022/11/20 00:43:40;;;;;;;14.63;4.70;;;;;;;-143.84;92.20;45142.38;5091910;28;20861;-79
2022/11/20 00:46:09;;;;;;;19.80;5.10;;;;;;;-143.84;91.82;45150.00;5091716;28;20436;-79
2022/11/20 00:48:37;;;;;;;10.13;4.03;;;;;;;-143.84;91.83;45150.00;5092498;28;20475;-79
2022/11/20 00:51:04;;;;;;;23.20;5.20;;;;;;;-143.84;91.88;45157.59;5096213;28;20443;-79
2022/11/20 00:53:32;;;;;;;26.00;5.37;;;;;;;-143.84;91.41;45157.59;5095813;28;20439;-79
2022/11/20 00:56:02;;;;;;;17.43;5.27;;;;;;;-143.84;91.68;45098.56;5095131;28;20439;-79
2022/11/20 00:58:32;;;;;;;15.30;4.30;;;;;;;-143.84;91.94;45151.91;5096205;28;20432;-79
2022/11/20 01:01:03;;;;;;;12.53;5.00;;;;;;;-143.84;92.23;45150.00;5095674;28;20953;-79
2022/11/20 01:03:33;;;;;;;21.00;5.00;;;;;;;-143.84;92.54;45127.13;5094649;28;20882;-79
2022/11/20 01:06:06;;;;;;;10.63;5.40;;;;;;;-143.84;93.00;45134.75;5094654;28;20468;-79
2022/11/20 01:08:34;;;;;;;14.30;4.83;;;;;;;-143.84;93.48;45138.56;5094670;28;20451;-79
2022/11/20 01:11:02;;;;;;;11.73;4.90;;;;;;;-143.84;93.38;45163.31;5094977;28;20442;-79
2022/11/20 01:13:40;;;;;;;17.20;5.03;;;;;;;-143.84;93.69;45167.13;5095583;28;20442;-79
2022/11/20 01:16:09;;;;;;;16.37;5.43;;;;;;;-143.84;94.01;45163.31;5094987;28;20446;-79
2022/11/20 01:18:37;;;;;;;23.13;5.40;;;;;;;-143.84;94.45;45153.81;5095327;28;20436;-79
2022/11/20 01:21:08;;;;;;;14.93;4.60;;;;;;;-143.84;94.41;45134.75;5095559;28;20505;-79
2022/11/20 01:23:37;;;;;;;12.47;4.77;;;;;;;-143.84;94.27;45151.91;5095179;28;20932;-79
2022/11/20 01:26:07;;;;;;;15.57;4.50;;;;;;;-143.84;94.46;45159.50;5094157;28;20439;-79
2022/11/20 01:28:35;;;;;;;14.03;4.20;;;;;;;-143.84;94.48;45140.47;5092705;28;21018;-79
2022/11/20 01:31:02;;;;;;;17.00;5.47;;;;;;;-143.84;94.49;45136.66;5095271;28;20428;-79
2022/11/20 01:33:29;;;;;;;15.67;4.70;;;;;;;-143.84;94.61;45150.00;5094915;28;20937;-78
2022/11/20 01:36:07;;;;;;;18.87;5.20;;;;;;;-143.84;94.66;45140.47;5094941;28;20496;-79
2022/11/20 01:38:34;;;;;;;24.97;5.50;;;;;;;-143.84;94.39;45148.09;5094968;28;20431;-79
2022/11/20 01:41:01;;;;;;;11.00;4.80;;;;;;;-143.84;94.10;45169.03;5095240;28;20779;-78
2022/11/20 01:43:28;;;;;;;18.30;4.80;;;;;;;-143.84;94.15;45134.75;5094707;28;20436;-79
2022/11/20 01:46:17;;;;;;;14.67;4.53;;;;;;;-143.84;94.10;45167.13;5094448;28;21071;-79
2022/11/20 01:48:51;;;;;;;22.90;5.70;;;;;;;-143.84;93.72;45151.91;5094541;28;20537;-79
2022/11/20 01:51:24;;;;;;;15.20;5.07;;;;;;;-143.84;93.54;45146.19;5094748;28;20440;-79
2022/11/20 01:53:54;;;;;;;16.67;5.60;;;;;;;-143.84;93.43;45144.28;5094663;28;20497;-79
2022/11/20 01:56:23;;;;;;;24.27;4.50;;;;;;;-143.84;93.33;45134.75;5094730;28;20517;-79
2022/11/20 01:58:53;;;;;;;17.03;5.00;;;;;;;-143.84;93.11;45134.75;5094500;28;20474;-79
2022/11/20 02:01:22;;;;;;;14.97;5.07;;;;;;;-143.84;93.34;45144.28;5090035;28;20447;-79
2022/11/20 02:03:50;;;;;;;20.13;4.67;;;;;;;-143.84;93.22;45142.38;5092677;28;20440;-79
2022/11/20 02:06:25;;;;;;;12.30;5.00;;;;;;;-143.84;92.94;45138.56;5093480;28;20444;-79
2022/11/20 02:08:52;;;;;;;27.43;5.00;;;;;;;-143.84;92.63;45159.50;5094294;28;20551;-79
2022/11/20 02:11:20;;;;;;;12.17;4.43;;;;;;;-143.84;92.84;45130.94;5094458;28;20829;-79
2022/11/20 02:13:47;;;;;;;12.77;4.33;;;;;;;-143.84;92.82;45146.19;5094554;28;20488;-79
2022/11/20 02:16:20;;;;;;;19.63;5.40;;;;;;;-143.84;92.61;45151.91;5094103;28;20444;-80
2022/11/20 02:18:48;;;;;;;15.40;4.80;;;;;;;-143.84;92.64;45193.78;5093676;28;20428;-79
2022/11/20 02:21:26;;;;;;;28.87;5.20;;;;;;;-143.84;92.34;45127.13;5094499;28;20440;-79
2022/11/20 02:24:07;;;;;;;14.67;4.07;;;;;;;-143.84;92.40;45172.84;5094044;28;20539;-79
2022/11/20 02:26:39;;;;;;;11.90;4.97;;;;;;;-143.84;92.20;45134.75;5094114;28;20494;-79
2022/11/20 02:29:06;;;;;;;18.40;4.20;;;;;;;-143.84;91.97;45159.50;5093906;28;20478;-79
2022/11/20 02:31:42;;;;;;;19.93;4.70;;;;;;;-143.84;91.74;45125.22;5093921;28;20440;-79
2022/11/20 02:34:09;;;;;;;17.23;4.60;;;;;;;-143.84;91.46;45161.41;5093551;28;20777;-79
2022/11/20 02:36:39;;;;;;;12.17;4.60;;;;;;;-143.84;91.09;45155.69;5093342;28;20513;-79
2022/11/20 02:39:10;;;;;;;13.70;4.70;;;;;;;-143.84;91.12;45134.75;5093857;28;20436;-79
2022/11/20 02:41:39;;;;;;;6.30;3.40;;;;;;;-143.84;91.08;45132.84;5093977;28;20440;-79
2022/11/20 02:44:06;;;;;;;10.70;4.40;;;;;;;-143.84;90.73;45106.19;5093554;28;20818;-79
2022/11/20 02:46:34;;;;;;;14.73;4.63;;;;;;;-143.84;90.58;45144.28;5093947;28;20427;-79
2022/11/20 02:49:03;;;;;;;13.50;4.20;;;;;;;-143.84;90.36;45125.22;5092249;28;21069;-79
2022/11/20 02:51:31;;;;;;;14.87;4.40;;;;;;;-143.84;90.32;45117.63;5091698;28;20440;-80
2022/11/20 02:53:58;;;;;;;9.40;4.47;;;;;;;-143.84;90.32;45140.47;5093027;28;20489;-79
2022/11/20 02:56:27;;;;;;;13.63;4.27;;;;;;;-143.84;90.30;45130.94;5092959;28;20436;-79
2022/11/20 02:58:54;;;;;;;12.10;4.50;;;;;;;-143.84;90.34;45142.38;5093342;28;20501;-79
2022/11/20 03:01:21;;;;;;;20.20;4.80;;;;;;;-143.84;90.39;45153.81;5093354;28;20440;-79
2022/11/20 03:03:49;;;;;;;14.97;4.97;;;;;;;-143.84;90.32;45136.66;5093194;28;20428;-80
2022/11/20 03:06:16;;;;;;;16.63;5.03;;;;;;;-143.84;90.36;45151.91;5093444;28;20431;-79
2022/11/20 03:08:44;;;;;;;10.90;4.00;;;;;;;-143.84;90.21;45148.09;5092996;28;20445;-79
2022/11/20 03:11:11;;;;;;;20.83;4.57;;;;;;;-143.84;90.21;45129.03;5092550;28;20497;-79
2022/11/20 03:13:40;;;;;;;20.87;4.10;;;;;;;-143.84;90.09;45151.91;5092878;28;20444;-79
2022/11/20 03:16:12;;;;;;;15.77;4.30;;;;;;;-143.84;90.18;45151.91;5092934;28;20451;-80
2022/11/20 03:18:40;;;;;;;16.33;5.03;;;;;;;-143.84;90.16;45150.00;5093297;28;20471;-80
2022/11/20 03:21:08;;;;;;;16.60;4.73;;;;;;;-143.84;90.12;45151.91;5092986;28;20447;-79
2022/11/20 03:23:35;;;;;;;21.20;4.57;;;;;;;-143.84;90.15;45138.56;5092792;28;20439;-80
2022/11/20 03:26:10;;;;;;;11.10;3.90;;;;;;;-143.84;90.40;45153.81;5092223;28;20463;-79
2022/11/20 03:28:39;;;;;;;18.33;4.47;;;;;;;-143.84;90.32;45146.19;5092360;28;20435;-79
2022/11/20 03:31:09;;;;;;;12.33;4.07;;;;;;;-143.84;90.08;45140.47;5092576;28;20448;-79
2022/11/20 03:33:36;;;;;;;20.13;4.80;;;;;;;-143.84;90.17;45127.13;5092600;28;20433;-79
2022/11/20 03:36:04;;;;;;;25.10;4.20;;;;;;;-143.84;90.32;45151.91;5092357;28;20444;-79
2022/11/20 03:38:32;;;;;;;15.10;4.00;;;;;;;-143.84;90.22;45144.28;5091350;28;20468;-79
2022/11/20 03:41:01;;;;;;;10.80;4.20;;;;;;;-143.84;90.27;45132.84;5092170;28;20436;-79
2022/11/20 03:43:28;;;;;;;23.20;4.63;;;;;;;-143.84;90.18;45136.66;5092062;28;20523;-79
2022/11/20 03:45:57;;;;;;;13.57;5.07;;;;;;;-143.84;89.96;45110.00;5090176;28;21440;-79
2022/11/20 03:48:24;;;;;;;23.57;4.63;;;;;;;-143.84;89.92;45134.75;5091072;28;20488;-79
2022/11/20 03:50:52;;;;;;;18.07;5.40;;;;;;;-143.84;90.10;45144.28;5090100;28;20527;-79
2022/11/20 03:53:19;;;;;;;15.97;4.77;;;;;;;-143.84;90.00;45159.50;5091103;28;20443;-79
2022/11/20 03:55:51;;;;;;;18.93;5.23;;;;;;;-143.84;90.02;45151.91;5090596;28;20459;-79
2022/11/20 03:58:18;;;;;;;23.67;6.03;;;;;;;-143.84;90.18;45148.09;5091911;28;20472;-79
2022/11/20 04:00:45;;;;;;;16.73;4.90;;;;;;;-143.84;90.07;45130.94;5092376;28;20959;-79
2022/11/20 04:03:14;;;;;;;18.57;5.20;;;;;;;-143.84;90.09;45117.63;5092521;28;20440;-79
2022/11/20 04:05:41;;;;;;;15.27;5.57;;;;;;;-143.84;90.21;45132.84;5092163;28;20970;-78
2022/11/20 04:08:08;;;;;;;20.93;5.53;;;;;;;-143.84;90.41;45123.34;5092196;28;20459;-79
2022/11/20 04:10:35;;;;;;;17.07;4.30;;;;;;;-143.84;90.35;45169.03;5092374;28;20891;-79
2022/11/20 04:13:02;;;;;;;16.43;4.90;;;;;;;-143.84;90.38;45140.47;5089382;28;20440;-79
2022/11/20 04:15:29;;;;;;;18.27;4.60;;;;;;;-143.84;90.18;45142.38;5088631;28;20851;-79
2022/11/20 04:17:56;;;;;;;18.70;5.07;;;;;;;-143.84;89.95;45134.75;5088690;28;20488;-78
2022/11/20 04:20:25;;;;;;;14.50;4.73;;;;;;;-143.84;89.98;45159.50;5091128;28;20432;-78
2022/11/20 04:22:55;;;;;;;22.80;4.53;;;;;;;-143.84;89.88;45163.31;5091472;28;20497;-79
2022/11/20 04:25:23;;;;;;;27.20;5.50;;;;;;;-143.84;90.19;45138.56;5095845;28;20438;-79
2022/11/20 04:27:50;;;;;;;16.27;5.13;;;;;;;-143.84;90.32;45163.31;5096399;28;20473;-79
2022/11/20 04:30:17;;;;;;;16.37;4.70;;;;;;;-143.84;90.30;45151.91;5096472;28;20427;-79
2022/11/20 04:32:44;;;;;;;22.90;5.67;;;;;;;-143.84;90.36;45121.44;5095707;28;20435;-79
2022/11/20 04:35:11;;;;;;;16.73;4.93;;;;;;;-143.84;90.54;45151.91;5096670;28;20431;-79
2022/11/20 04:37:40;;;;;;;15.50;4.73;;;;;;;-143.84;90.51;45151.91;5095633;28;20479;-79
2022/11/20 04:40:08;;;;;;;18.87;4.90;;;;;;;-143.84;90.37;45144.28;5093791;28;20514;-79
2022/11/20 04:42:35;;;;;;;12.33;4.10;;;;;;;-143.84;90.35;45140.47;5094742;28;20440;-79
2022/11/20 04:45:02;;;;;;;10.00;4.00;;;;;;;-143.84;90.32;45159.50;5093997;28;20482;-79
2022/11/20 04:47:29;;;;;;;12.50;3.70;;;;;;;-143.84;90.27;45150.00;5094890;28;20436;-79
2022/11/20 04:49:56;;;;;;;13.53;4.60;;;;;;;-143.84;90.04;45153.81;5095161;28;20807;-79
2022/11/20 04:52:23;;;;;;;19.33;4.20;;;;;;;-143.84;90.10;45153.81;5095314;28;20483;-79
2022/11/20 04:54:53;;;;;;;13.67;4.63;;;;;;;-143.84;90.07;45172.84;5094314;28;20436;-79
2022/11/20 04:57:20;;;;;;;12.53;4.30;;;;;;;-143.84;89.95;45134.75;5094167;28;20566;-79
2022/11/20 04:59:47;;;;;;;24.13;4.30;;;;;;;-143.84;90.02;45159.50;5094546;28;20501;-79
2022/11/20 05:02:14;;;;;;;16.33;4.40;;;;;;;-143.84;90.07;45159.50;5094162;28;20431;-79
2022/11/20 05:04:41;;;;;;;17.50;4.20;;;;;;;-143.84;90.01;45148.09;5093925;28;20508;-79
2022/11/20 05:07:08;;;;;;;20.40;5.97;;;;;;;-143.84;89.97;45150.00;5094312;28;20502;-79
2022/11/20 05:09:35;;;;;;;10.80;3.83;;;;;;;-143.84;89.83;45138.56;5094728;28;20504;-79
2022/11/20 05:12:04;;;;;;;16.43;4.13;;;;;;;-143.84;89.87;45117.63;5095199;28;20998;-79
2022/11/20 05:14:31;;;;;;;19.60;5.53;;;;;;;-143.84;90.03;45150.00;5094932;28;20443;-80
2022/11/20 05:16:59;;;;;;;15.67;3.87;;;;;;;-143.84;89.92;45163.31;5094563;28;20428;-79
2022/11/20 05:19:26;;;;;;;12.40;4.20;;;;;;;-143.84;90.23;45169.03;5094593;28;20977;-79
2022/11/20 05:21:53;;;;;;;20.57;3.93;;;;;;;-143.84;90.14;45151.91;5094114;28;20431;-79
2022/11/20 05:24:20;;;;;;;12.30;4.03;;;;;;;-143.84;90.21;45146.19;5094303;28;20472;-79
2022/11/20 05:26:47;;;;;;;11.23;2.93;;;;;;;-143.84;89.88;45132.84;5094419;28;20440;-79
2022/11/20 05:29:16;;;;;;;11.63;3.37;;;;;;;-143.84;89.75;45155.69;5094480;28;21036;-79
2022/11/20 05:31:43;;;;;;;14.53;4.70;;;;;;;-143.84;89.52;45150.00;5094423;28;20489;-79
2022/11/20 05:34:10;;;;;;;20.70;4.80;;;;;;;-143.84;89.55;45170.94;5093237;28;20497;-79
2022/11/20 05:36:37;;;;;;;20.47;3.73;;;;;;;-143.84;89.16;45189.97;5091167;28;20440;-80
2022/11/20 05:39:05;;;;;;;11.53;4.43;;;;;;;-143.84;89.05;45117.63;5093141;28;20842;-79
2022/11/20 05:41:34;;;;;;;13.00;3.40;;;;;;;-143.84;88.91;45153.81;5093123;28;20440;-80
2022/11/20 05:44:01;;;;;;;26.57;5.10;;;;;;;-143.84;88.67;45153.81;5093055;28;20888;-79
2022/11/20 05:46:29;;;;;;;14.43;4.00;;;;;;;-143.84;88.75;45138.56;5092832;28;20436;-80
2022/11/20 05:48:58;;;;;;;24.83;4.53;;;;;;;-143.84;88.74;45161.41;5092849;28;20556;-80
2022/11/20 05:51:26;;;;;;;26.20;4.53;;;;;;;-143.84;88.79;45161.41;5093223;28;20454;-79
2022/11/20 05:53:54;;;;;;;15.30;3.70;;;;;;;-143.84;88.37;45165.22;5092858;28;20442;-80
2022/11/20 05:56:22;;;;;;;25.17;4.90;;;;;;;-143.84;88.39;45136.66;5078600;28;20445;-79
2022/11/20 05:58:50;;;;;;;20.27;4.13;;;;;;;-143.84;88.22;45150.00;5072463;28;21038;-80
2022/11/20 06:01:18;;;;;;;20.10;4.47;;;;;;;-143.84;87.91;45144.28;5072573;28;20463;-80
2022/11/20 06:03:59;;;;;;;11.03;3.90;;;;;;;-143.84;88.01;45140.47;5072694;28;20443;-79
2022/11/20 06:06:26;;;;;;;17.13;4.80;;;;;;;-143.84;87.92;45150.00;5072045;28;20958;-79
2022/11/20 06:08:53;;;;;;;23.67;4.40;;;;;;;-143.84;87.75;45153.81;5072318;28;20517;-79
2022/11/20 06:11:20;;;;;;;13.57;3.83;;;;;;;-143.84;87.45;45150.00;5072394;28;20448;-80
2022/11/20 06:13:48;;;;;;;20.20;4.63;;;;;;;-143.84;87.15;45146.19;5072538;28;20437;-79
2022/11/20 06:16:17;;;;;;;13.43;4.73;;;;;;;-143.84;87.05;45140.47;5072298;28;20589;-79
2022/11/20 06:18:45;;;;;;;13.27;4.47;;;;;;;-143.84;86.98;45157.59;5072059;28;20483;-79
2022/11/20 06:21:16;;;;;;;11.90;3.87;;;;;;;-143.84;86.85;45136.66;5071632;28;20476;-79
2022/11/20 06:23:43;;;;;;;21.37;3.97;;;;;;;-143.84;86.76;45130.94;5071577;28;20449;-79
2022/11/20 06:26:12;;;;;;;7.30;4.00;;;;;;;-143.84;86.74;45163.31;5071339;28;20436;-80
2022/11/20 06:28:40;;;;;;;20.33;4.70;;;;;;;-143.84;86.33;45127.13;5070459;28;20445;-79
2022/11/20 06:31:08;;;;;;;29.67;6.03;;;;;;;-143.84;86.14;45142.38;5070586;28;20506;-79
2022/11/20 06:33:36;;;;;;;13.30;4.07;;;;;;;-143.84;86.11;45146.19;5070242;28;20494;-79
2022/11/20 06:36:05;;;;;;;18.10;4.67;;;;;;;-143.84;86.15;45134.75;5077759;28;20976;-79
2022/11/20 06:38:34;;;;;;;28.33;4.83;;;;;;;-143.84;86.05;45157.59;5091647;28;20476;-80
2022/11/20 06:41:01;;;;;;;24.87;4.77;;;;;;;-143.84;86.05;45121.44;5091475;28;20917;-78
2022/11/20 06:43:30;;;;;;;11.10;3.67;;;;;;;-143.84;86.00;45146.19;5091790;28;20456;-76
2022/11/20 06:45:58;;;;;;;14.73;3.80;;;;;;;-143.84;85.01;45155.69;5091114;28;20482;-78
2022/11/20 06:48:27;;;;;;;21.60;5.20;;;;;;;-143.84;84.24;45146.19;5090589;28;20475;-78
2022/11/20 06:50:54;;;;;;;25.80;4.50;;;;;;;-143.84;83.62;45123.34;5091576;28;20436;-79
2022/11/20 06:53:22;;;;;;;27.63;6.20;;;;;;;-143.84;83.63;45151.91;5091530;28;20432;-78
2022/11/20 06:55:51;;;;;;;16.93;5.80;;;;;;;-143.84;83.19;45121.44;5091917;28;20961;-79
2022/11/20 06:58:19;;;;;;;18.93;5.20;;;;;;;-143.84;83.29;45138.56;5090799;28;20471;-79
2022/11/20 07:00:46;;;;;;;10.83;3.23;;;;;;;-143.84;83.12;45132.84;5090190;28;20444;-79
2022/11/20 07:03:14;;;;;;;19.87;4.30;;;;;;;-143.84;82.67;45129.03;5091095;28;20435;-79
2022/11/20 07:05:41;;;;;;;16.43;3.90;;;;;;;-143.84;83.15;45125.22;5091818;28;20929;-79
2022/11/20 07:08:08;;;;;;;15.80;4.30;;;;;;;-143.84;82.95;45132.84;5091504;28;20861;-78
2022/11/20 07:10:36;;;;;;;16.23;4.47;;;;;;;-143.84;82.59;45155.69;5091314;28;20501;-78
2022/11/20 07:13:04;;;;;;;15.37;4.40;;;;;;;-143.84;82.34;45151.91;5091022;28;20432;-78
2022/11/20 07:15:31;;;;;;;29.37;4.80;;;;;;;-143.84;82.11;45197.59;5091087;28;20949;-78
2022/11/20 07:18:00;;;;;;;23.27;4.47;;;;;;;-143.84;82.46;45123.34;5090643;28;20537;-78
2022/11/20 07:20:27;;;;;;;17.97;4.43;;;;;;;-143.84;82.53;45132.84;5090492;28;20887;-78
2022/11/20 07:22:55;;;;;;;17.13;6.03;;;;;;;-143.84;82.52;45134.75;5092412;28;20439;-78
2022/11/20 07:25:23;;;;;;;19.27;5.33;;;;;;;-143.84;82.22;45144.28;5091612;28;20523;-76
2022/11/20 07:27:50;;;;;;;16.37;5.13;;;;;;;-143.84;82.27;45142.38;5091756;28;20811;-76
2022/11/20 07:30:19;;;;;;;16.83;5.03;;;;;;;-143.84;82.33;45150.00;5091149;28;20926;-77
2022/11/20 07:32:47;;;;;;;28.40;5.73;;;;;;;-143.84;82.50;45146.19;5090916;28;20437;-76
2022/11/20 07:35:15;;;;;;;18.97;4.57;;;;;;;-143.84;81.98;45136.66;5091360;28;20439;-76
2022/11/20 07:37:42;;;;;;;29.03;4.60;;;;;;;-143.84;82.12;45132.84;5091421;28;20443;-76
2022/11/20 07:40:10;;;;;;;25.87;5.50;;;;;;;-143.84;81.96;45115.72;5080392;28;20452;-76
2022/11/20 07:42:37;;;;;;;25.80;5.67;;;;;;;-143.84;82.11;45140.47;5070968;28;20440;-76
2022/11/20 07:45:05;;;;;;;24.03;5.40;;;;;;;-143.84;81.82;45151.91;5070475;28;20433;-76
2022/11/20 07:47:37;;;;;;;38.60;7.10;;;;;;;-143.84;82.18;45167.13;5069465;28;20436;-76
2022/11/20 07:50:05;;;;;;;22.90;7.23;;;;;;;-143.84;81.58;45121.44;5070126;28;20449;-75
2022/11/20 07:52:32;;;;;;;19.27;6.80;;;;;;;-143.84;81.78;45138.56;5069995;28;20440;-75
2022/11/20 07:54:59;;;;;;;26.83;5.37;;;;;;;-143.84;81.42;45138.56;5069989;28;20436;-76
2022/11/20 07:57:26;;;;;;;13.10;4.30;;;;;;;-143.84;81.85;45163.31;5070066;28;20490;-76
2022/11/20 07:59:53;;;;;;;16.00;5.67;;;;;;;-143.84;81.93;45148.09;5069905;28;20465;-76
2022/11/20 08:02:21;;;;;;;23.83;5.60;;;;;;;-143.84;82.33;45129.03;5069412;28;21271;-75
2022/11/20 08:04:49;;;;;;;25.47;4.70;;;;;;;-143.84;82.25;45134.75;5070147;28;20432;-76
2022/11/20 08:07:16;;;;;;;28.57;5.23;;;;;;;-143.84;82.26;45127.13;5080271;28;21078;-76
2022/11/20 08:09:43;;;;;;;32.60;5.97;;;;;;;-143.84;82.12;45130.94;5089945;28;20443;-76
2022/11/20 08:15:02;;;;;;;20.97;5.03;;;;;;;-143.84;81.96;45142.38;5088739;28;20446;-76
2022/11/20 08:17:29;;;;;;;20.20;5.30;;;;;;;-143.84;81.89;45098.56;5088528;28;20444;-76
2022/11/20 08:19:58;;;;;;;24.90;6.23;;;;;;;-143.84;81.94;45125.22;5088888;28;20459;-76
2022/11/20 08:22:26;;;;;;;21.10;6.87;;;;;;;-143.84;81.45;45117.63;5088900;28;20459;-76
2022/11/20 08:24:53;;;;;;;21.70;5.70;;;;;;;-143.84;81.69;45129.03;5089915;28;20443;-78
2022/11/20 08:27:20;;;;;;;19.47;6.60;;;;;;;-143.84;81.91;45134.75;5091211;28;20428;-77
2022/11/20 08:29:52;;;;;;;16.57;6.83;;;;;;;-143.84;81.49;45117.63;5091055;28;20432;-77
2022/11/20 08:32:22;;;;;;;31.73;6.47;;;;;;;-143.84;81.78;45140.47;5088631;28;21233;-77
2022/11/20 08:34:53;;;;;;;25.73;5.50;;;;;;;-143.84;81.71;45151.91;5091152;28;20440;-77
2022/11/20 08:37:21;;;;;;;30.77;7.20;;;;;;;-143.84;81.83;45113.81;5089118;28;20941;-78
2022/11/20 08:39:48;;;;;;;16.90;6.80;;;;;;;-143.84;81.81;45136.66;5091257;28;20471;-78
2022/11/20 08:42:16;;;;;;;26.13;5.37;;;;;;;-143.84;81.79;45129.03;5091285;28;20446;-76
2022/11/20 08:44:43;;;;;;;25.43;5.47;;;;;;;-143.84;81.83;45130.94;5090581;28;20436;-78
2022/11/20 08:47:10;;;;;;;12.73;4.33;;;;;;;-143.84;81.79;45130.94;5086008;28;20949;-76
2022/11/20 08:49:37;;;;;;;25.73;4.70;;;;;;;-143.84;81.53;45127.13;5086604;28;20472;-77
2022/11/20 08:52:05;;;;;;;33.17;6.77;;;;;;;-143.84;81.79;45150.00;5088266;28;20517;-77
2022/11/20 08:54:33;;;;;;;17.90;5.50;;;;;;;-143.84;81.66;45121.44;5089026;28;20447;-77
2022/11/20 08:57:01;;;;;;;18.50;5.03;;;;;;;-143.84;81.18;45115.72;5089596;28;20432;-77
2022/11/20 08:59:28;;;;;;;30.30;9.10;;;;;;;-143.84;81.24;45125.22;5090650;28;21074;-78
2022/11/20 09:01:55;;;;;;;23.23;6.00;;;;;;;-143.84;81.23;45134.75;5089940;28;20432;-78
2022/11/20 09:04:22;;;;;;;24.40;4.63;;;;;;;-143.84;81.06;45130.94;5091263;28;20424;-78
2022/11/20 09:06:51;;;;;;;24.73;7.10;;;;;;;-143.84;81.48;45148.09;5091830;28;20812;-76
2022/11/20 09:09:18;;;;;;;17.53;5.50;;;;;;;-143.84;81.13;45132.84;5094850;28;20501;-78
2022/11/20 09:11:49;;;;;;;15.27;5.70;;;;;;;-143.84;80.87;45115.72;5099493;28;20428;-78
2022/11/20 09:14:17;;;;;;;26.97;6.23;;;;;;;-143.84;81.00;45119.53;5099148;28;20440;-78
2022/11/20 09:16:46;;;;;;;23.07;5.67;;;;;;;-143.84;81.24;45132.84;5097954;28;20424;-77
2022/11/20 09:19:13;;;;;;;19.27;5.17;;;;;;;-143.84;81.16;45129.03;5098623;28;20475;-78
2022/11/20 09:21:40;;;;;;;24.20;6.00;;;;;;;-143.84;81.16;45130.94;5094142;28;20435;-73
2022/11/20 09:24:08;;;;;;;28.20;6.00;;;;;;;-143.84;80.71;45130.94;5091911;28;20443;-74
2022/11/20 09:26:35;;;;;;;27.93;5.83;;;;;;;-143.84;80.96;45146.19;5091850;28;20432;-73
2022/11/20 09:29:03;;;;;;;16.57;5.47;;;;;;;-143.84;80.48;45134.75;5091476;28;20493;-73
2022/11/20 09:31:30;;;;;;;31.27;6.10;;;;;;;-143.84;80.81;45117.63;5091966;28;20436;-72
2022/11/20 09:33:58;;;;;;;22.90;7.80;;;;;;;-143.84;80.63;45144.28;5091832;28;20447;-73
2022/11/20 09:36:26;;;;;;;35.80;7.53;;;;;;;-143.84;80.47;45113.81;5091993;28;20806;-73
2022/11/20 09:38:53;;;;;;;27.50;6.03;;;;;;;-143.84;80.71;45127.13;5091823;28;20490;-73
2022/11/20 09:41:50;;;;;;;15.60;6.07;;;;;;;-143.84;80.42;45111.91;5092007;28;20475;-72
2022/11/20 09:44:35;;;;;;;30.73;5.93;;;;;;;-143.84;80.36;45151.91;5092150;28;20507;-74
2022/11/20 09:47:09;;;;;;;34.00;6.37;;;;;;;-143.84;80.34;45110.00;5090803;28;20436;-74
2022/11/20 09:49:53;;;;;;;38.13;8.33;;;;;;;-143.84;80.45;45121.44;5091401;28;21074;-72
2022/11/20 09:52:31;;;;;;;25.03;6.43;;;;;;;-143.84;80.28;45148.09;5091912;28;20427;-73
2022/11/20 09:55:02;;;;;;;13.13;4.57;;;;;;;-143.84;80.20;45111.91;5091872;28;21077;-73
2022/11/20 09:57:36;;;;;;;23.67;6.10;;;;;;;-143.84;79.50;45132.84;5091348;28;20536;-76
2022/11/20 10:00:12;;;;;;;26.67;5.33;;;;;;;-143.84;79.45;45117.63;5091038;28;20819;-73
2022/11/20 10:02:45;;;;;;;20.20;4.90;;;;;;;-143.84;78.77;45117.63;5091447;28;20450;-77
2022/11/20 10:05:19;;;;;;;14.47;4.73;;;;;;;-143.84;78.90;45121.44;5091932;28;20459;-75
2022/11/20 10:07:54;;;;;;;15.93;4.30;;;;;;;-143.84;78.32;45104.28;5092065;28;21361;-75
2022/11/20 10:10:32;;;;;;;17.83;4.60;;;;;;;-143.84;77.84;45121.44;5091591;28;20454;-74
2022/11/20 10:13:25;;;;;;;16.77;5.27;;;;;;;-143.84;78.16;45138.56;5091089;28;20446;-74
2022/11/20 10:16:10;;;;;;;76.60;27.13;;;;;;;-143.84;77.63;45138.56;5090620;28;20436;-74
2022/11/20 10:19:03;;;;;;;50.50;17.37;;;;;;;-143.84;77.17;45110.00;5091122;28;20452;-73
2022/11/20 10:21:42;;;;;;;58.07;20.70;;;;;;;-143.84;77.41;45113.81;5090071;28;20801;-73
2022/11/20 10:24:34;;;;;;;49.77;18.50;;;;;;;-143.84;77.52;45119.53;5091006;28;20450;-74
2022/11/20 10:27:17;;;;;;;33.17;8.30;;;;;;;-143.84;77.11;45125.22;5090783;28;20462;-74
2022/11/20 10:29:49;;;;;;;22.00;6.60;;;;;;;-143.84;77.36;45125.22;5090490;28;20443;-74
2022/11/20 10:32:20;;;;;;;21.50;7.73;;;;;;;-143.84;77.14;45121.44;5091032;28;20509;-73
2022/11/20 10:34:52;;;;;;;38.17;9.67;;;;;;;-143.84;77.60;45132.84;5090948;28;20432;-74
2022/11/20 10:37:24;;;;;;;34.77;7.40;;;;;;;-143.84;77.49;45117.63;5090503;28;20446;-74
2022/11/20 10:39:57;;;;;;;31.80;8.70;;;;;;;-143.84;77.27;45117.63;5091525;28;20471;-73
2022/11/20 10:42:32;;;;;;;31.37;7.67;;;;;;;-143.84;77.20;45121.44;5090827;28;20449;-74
2022/11/20 10:45:12;;;;;;;31.57;9.87;;;;;;;-143.84;76.85;45125.22;5090267;28;20427;-75
2022/11/20 10:47:41;;;;;;;24.40;9.23;;;;;;;-143.84;76.58;45110.00;5090546;28;20483;-74
2022/11/20 10:50:15;;;;;;;26.03;5.60;;;;;;;-143.84;76.47;45117.63;5090722;28;20459;-73
2022/11/20 10:52:57;;;;;;;19.87;5.20;;;;;;;-143.84;76.41;45132.84;5090923;28;20506;-74
2022/11/20 10:55:34;;;;;;;32.07;6.73;;;;;;;-143.84;76.63;45102.38;5090336;28;20509;-74
2022/11/20 10:58:11;;;;;;;15.83;6.10;;;;;;;-143.84;76.69;45121.44;5086590;28;20456;-74
2022/11/20 11:00:38;;;;;;;32.50;6.53;;;;;;;-143.84;76.67;45129.03;5085935;28;20491;-72
2022/11/20 11:03:21;;;;;;;19.53;6.03;;;;;;;-143.84;76.77;45127.13;5086363;28;20463;-72
2022/11/20 11:05:52;;;;;;;22.63;8.40;;;;;;;-143.84;76.19;45170.94;5085310;28;20826;-72
2022/11/20 11:08:21;;;;;;;27.97;9.63;;;;;;;-143.84;76.09;45113.81;5085105;28;20448;-75
2022/11/20 11:10:53;;;;;;;36.30;11.77;;;;;;;-143.84;75.89;45129.03;5085048;28;20479;-75
2022/11/20 11:13:22;;;;;;;22.33;7.07;;;;;;;-143.84;75.95;45113.81;5082910;28;20448;-75
2022/11/20 11:15:49;;;;;;;26.57;6.13;;;;;;;-143.84;75.65;45087.16;5085215;28;20505;-75
2022/11/20 11:18:27;;;;;;;22.43;5.10;;;;;;;-143.84;75.46;45106.19;5089199;28;20452;-75
2022/11/20 11:20:56;;;;;;;25.13;5.50;;;;;;;-143.84;75.48;45077.63;5089161;28;20482;-75
2022/11/20 11:23:36;;;;;;;27.07;7.50;;;;;;;-143.84;75.83;45148.09;5083930;28;20553;-74